createdAt,value
2022-11-28T00:01:19.351Z,4.53
2022-11-28T00:04:25.279Z,4.49
2022-11-28T00:07:29.223Z,4.41
2022-11-28T00:10:33.425Z,4.41
2022-11-28T00:13:38.150Z,4.39
2022-11-28T00:16:42.345Z,4.41
2022-11-28T00:19:46.594Z,4.40
2022-11-28T00:22:52.170Z,4.39
2022-11-28T00:26:01.471Z,4.36
2022-11-28T00:29:05.722Z,4.31
2022-11-28T00:32:10.143Z,4.33
2022-11-28T00:35:14.512Z,4.31
2022-11-28T00:38:18.765Z,4.41
2022-11-28T00:41:26.284Z,4.42
2022-11-28T00:44:30.434Z,4.34
2022-11-28T00:47:34.140Z,4.33
2022-11-28T00:50:38.256Z,4.38
2022-11-28T00:53:44.586Z,4.47
2022-11-28T00:56:48.638Z,4.58
2022-11-28T00:59:52.730Z,4.58
2022-11-28T01:02:56.693Z,4.55
2022-11-28T01:06:02.953Z,4.38
2022-11-28T01:09:10.717Z,4.43
2022-11-28T01:12:14.554Z,4.41
2022-11-28T01:15:18.836Z,4.42
2022-11-28T01:18:23.027Z,4.42
2022-11-28T01:21:27.343Z,4.41
2022-11-28T01:24:31.400Z,4.41
2022-11-28T01:27:35.471Z,4.43
2022-11-28T01:30:39.697Z,4.49
2022-11-28T01:33:43.919Z,4.50
2022-11-28T01:36:48.197Z,4.52
2022-11-28T01:39:52.432Z,4.53
2022-11-28T01:42:56.555Z,4.64
2022-11-28T01:46:01.291Z,4.66
2022-11-28T01:49:09.297Z,4.65
2022-11-28T01:52:16.783Z,4.74
2022-11-28T01:55:24.489Z,4.75
2022-11-28T01:58:30.828Z,4.72
2022-11-28T02:01:34.852Z,4.70
2022-11-28T02:04:39.266Z,4.66
2022-11-28T02:07:44.538Z,4.72
2022-11-28T02:11:16.893Z,4.69
2022-11-28T02:14:30.765Z,4.78
2022-11-28T02:17:56.515Z,4.84
2022-11-28T02:21:29.297Z,4.82
2022-11-28T02:25:17.510Z,4.76
2022-11-28T02:28:29.617Z,4.69
2022-11-28T02:31:43.021Z,4.66
2022-11-28T02:34:53.075Z,4.71
2022-11-28T02:38:29.065Z,4.64
2022-11-28T02:41:57.837Z,4.69
2022-11-28T02:45:10.963Z,4.61
2022-11-28T02:48:47.231Z,4.69
2022-11-28T02:52:03.278Z,4.63
2022-11-28T02:55:08.551Z,4.70
2022-11-28T02:58:13.128Z,4.64
2022-11-28T03:01:25.674Z,4.68
2022-11-28T03:04:36.106Z,4.71
2022-11-28T03:07:58.155Z,4.72
2022-11-28T03:11:32.985Z,4.80
2022-11-28T03:14:50.824Z,4.76
2022-11-28T03:18:06.760Z,4.91
2022-11-28T03:21:15.053Z,4.78
2022-11-28T03:24:27.876Z,4.89
2022-11-28T03:27:37.890Z,4.56
2022-11-28T03:30:49.019Z,4.66
2022-11-28T03:33:59.567Z,4.72
2022-11-28T03:37:09.958Z,4.69
2022-11-28T03:40:20.462Z,4.63
2022-11-28T03:43:34.553Z,4.78
2022-11-28T03:46:44.697Z,4.84
2022-11-28T03:49:52.982Z,4.78
2022-11-28T03:53:03.058Z,4.73
2022-11-28T03:56:17.600Z,4.74
2022-11-28T03:59:47.968Z,4.71
2022-11-28T04:03:10.856Z,4.65
2022-11-28T04:06:21.479Z,4.68
2022-11-28T04:09:42.088Z,4.71
2022-11-28T04:13:20.061Z,4.77
2022-11-28T04:16:53.442Z,4.65
2022-11-28T04:20:27.002Z,4.76
2022-11-28T04:23:32.874Z,4.76
2022-11-28T04:26:43.632Z,4.83
2022-11-28T04:29:51.236Z,4.79
2022-11-28T04:33:01.468Z,4.68
2022-11-28T04:36:07.546Z,4.78
2022-11-28T04:39:18.244Z,4.92
2022-11-28T04:42:42.407Z,4.84
2022-11-28T04:45:52.518Z,4.92
2022-11-28T04:48:56.912Z,4.89
2022-11-28T04:52:14.919Z,5.00
2022-11-28T04:55:43.598Z,4.77
2022-11-28T04:58:50.141Z,4.64
2022-11-28T05:01:55.818Z,4.75
2022-11-28T05:05:00.051Z,4.72
2022-11-28T05:08:04.166Z,4.72
2022-11-28T05:11:08.052Z,4.72
2022-11-28T05:14:12.001Z,4.71
2022-11-28T05:17:16.191Z,4.77
2022-11-28T05:20:20.669Z,4.67
2022-11-28T05:23:24.931Z,4.73
2022-11-28T05:26:32.170Z,4.73
2022-11-28T05:29:36.200Z,4.79
2022-11-28T05:32:40.658Z,4.69
2022-11-28T05:35:44.839Z,4.70
2022-11-28T05:38:48.782Z,4.69
2022-11-28T05:41:55.231Z,4.70
2022-11-28T05:44:58.994Z,4.72
2022-11-28T05:48:02.787Z,4.76
2022-11-28T05:51:07.597Z,4.81
2022-11-28T05:54:11.951Z,4.84
2022-11-28T05:57:15.823Z,4.88
2022-11-28T06:00:20.438Z,4.88
2022-11-28T06:03:24.506Z,4.92
2022-11-28T06:06:31.292Z,4.90
2022-11-28T06:09:35.684Z,4.86
2022-11-28T06:12:39.994Z,4.90
2022-11-28T06:15:45.055Z,4.98
2022-11-28T06:18:52.589Z,4.92
2022-11-28T06:21:56.822Z,5.03
2022-11-28T06:25:00.997Z,5.08
2022-11-28T06:28:05.277Z,5.22
2022-11-28T06:31:18.198Z,5.13
2022-11-28T06:34:22.927Z,5.09
2022-11-28T06:37:28.186Z,5.22
2022-11-28T06:40:32.413Z,5.24
2022-11-28T06:43:37.400Z,5.18
2022-11-28T06:46:41.512Z,5.10
2022-11-28T06:49:45.807Z,5.08
2022-11-28T06:52:49.811Z,5.28
2022-11-28T06:55:53.721Z,5.28
2022-11-28T06:59:00.114Z,5.27
2022-11-28T07:02:07.408Z,5.20
2022-11-28T07:05:12.105Z,5.26
2022-11-28T07:08:16.174Z,5.15
2022-11-28T07:11:23.447Z,5.14
2022-11-28T07:14:27.492Z,5.18
2022-11-28T07:17:31.826Z,5.19
2022-11-28T07:20:36.115Z,5.29
2022-11-28T07:23:40.291Z,5.36
2022-11-28T07:26:45.781Z,5.27
2022-11-28T07:29:50.145Z,5.40
2022-11-28T07:32:54.409Z,5.55
2022-11-28T07:36:04.508Z,5.47
2022-11-28T07:39:13.621Z,5.45
2022-11-28T07:42:17.985Z,5.33
2022-11-28T07:45:22.999Z,5.33
2022-11-28T07:48:27.001Z,5.27
2022-11-28T07:51:33.414Z,5.42
2022-11-28T07:54:37.509Z,5.34
2022-11-28T07:57:41.675Z,5.32
2022-11-28T08:00:45.529Z,5.33
2022-11-28T08:03:50.113Z,5.33
2022-11-28T08:06:54.238Z,5.31
2022-11-28T08:09:57.948Z,5.33
2022-11-28T08:13:02.216Z,5.39
2022-11-28T08:16:09.161Z,5.48
2022-11-28T08:19:13.947Z,5.45
2022-11-28T08:22:18.150Z,5.41
2022-11-28T08:25:21.927Z,5.46
2022-11-28T08:28:26.204Z,5.48
2022-11-28T08:31:36.173Z,5.31
2022-11-28T08:34:40.600Z,5.33
2022-11-28T08:37:44.851Z,5.38
2022-11-28T08:40:48.969Z,5.41
2022-11-28T08:43:52.751Z,5.42
2022-11-28T08:46:57.207Z,5.51
2022-11-28T08:50:01.400Z,5.45
2022-11-28T08:53:08.502Z,5.47
2022-11-28T08:56:13.126Z,5.53
2022-11-28T08:59:17.121Z,5.58
2022-11-28T09:02:25.763Z,5.60
2022-11-28T09:05:30.765Z,5.67
2022-11-28T09:08:34.528Z,5.74
2022-11-28T09:11:38.776Z,5.74
2022-11-28T09:14:42.793Z,5.72
2022-11-28T09:17:46.858Z,5.82
2022-11-28T09:20:50.898Z,5.86
2022-11-28T09:23:56.045Z,5.76
2022-11-28T09:26:59.982Z,5.81
2022-11-28T09:30:04.807Z,5.74
2022-11-28T09:33:09.652Z,5.73
2022-11-28T09:36:16.057Z,5.75
2022-11-28T09:39:20.174Z,5.67
2022-11-28T09:42:32.051Z,5.92
2022-11-28T09:45:36.359Z,5.90
2022-11-28T09:48:46.707Z,6.09
2022-11-28T09:51:57.875Z,6.29
2022-11-28T09:55:12.964Z,6.26
2022-11-28T09:58:27.258Z,6.32
2022-11-28T10:01:40.521Z,6.25
2022-11-28T10:04:49.407Z,6.13
2022-11-28T10:08:03.086Z,6.25
2022-11-28T10:11:26.789Z,6.22
2022-11-28T10:14:53.581Z,6.52
2022-11-28T10:18:36.485Z,6.64
2022-11-28T10:21:52.916Z,6.74
2022-11-28T10:25:06.232Z,6.62
2022-11-28T10:28:17.606Z,6.61
2022-11-28T10:31:36.632Z,6.74
2022-11-28T10:34:53.668Z,6.59
2022-11-28T10:37:57.674Z,6.63
2022-11-28T10:41:14.310Z,6.86
2022-11-28T10:44:26.338Z,6.78
2022-11-28T10:47:52.390Z,6.77
2022-11-28T10:51:08.207Z,6.67
2022-11-28T10:54:30.931Z,6.73
2022-11-28T10:57:45.696Z,6.80
2022-11-28T11:00:53.720Z,6.79
2022-11-28T11:03:57.852Z,6.74
2022-11-28T11:07:22.732Z,6.90
2022-11-28T11:10:49.566Z,6.81
2022-11-28T11:14:13.924Z,7.03
2022-11-28T11:17:36.233Z,6.96
2022-11-28T11:20:40.917Z,7.05
2022-11-28T11:23:46.240Z,7.08
2022-11-28T11:26:51.095Z,7.18
2022-11-28T11:29:55.748Z,7.08
2022-11-28T11:33:01.421Z,6.99
2022-11-28T11:36:21.571Z,7.01
2022-11-28T11:39:26.203Z,7.09
2022-11-28T11:42:32.913Z,7.19
2022-11-28T11:45:37.268Z,7.15
2022-11-28T11:48:44.384Z,7.24
2022-11-28T11:51:56.395Z,7.26
2022-11-28T11:55:13.416Z,7.25
2022-11-28T11:58:25.449Z,7.16
2022-11-28T12:01:31.921Z,7.11
2022-11-28T12:04:47.047Z,7.15
2022-11-28T12:08:09.851Z,7.16
2022-11-28T12:11:25.655Z,7.17
2022-11-28T12:14:35.051Z,7.19
2022-11-28T12:18:08.383Z,7.18
2022-11-28T12:21:16.066Z,7.22
2022-11-28T12:24:30.708Z,7.26
2022-11-28T12:27:56.442Z,7.28
2022-11-28T12:31:29.046Z,7.33
2022-11-28T12:34:49.742Z,7.50
2022-11-28T12:38:12.646Z,7.48
2022-11-28T12:41:37.944Z,7.45
2022-11-28T12:45:00.539Z,7.53
2022-11-28T12:48:29.024Z,7.36
2022-11-28T12:51:42.003Z,7.44
2022-11-28T12:54:57.188Z,7.49
2022-11-28T12:58:16.448Z,7.45
2022-11-28T13:01:29.670Z,7.57
2022-11-28T13:05:05.030Z,7.30
2022-11-28T13:08:27.851Z,7.31
2022-11-28T13:12:17.873Z,7.40
2022-11-28T13:15:40.963Z,7.44
2022-11-28T13:19:00.444Z,7.36
2022-11-28T13:22:23.288Z,7.44
2022-11-28T13:25:43.396Z,7.59
2022-11-28T13:28:51.264Z,7.54
2022-11-28T13:32:09.313Z,7.57
2022-11-28T13:35:15.448Z,7.47
2022-11-28T13:39:08.143Z,7.28
2022-11-28T13:42:44.247Z,7.36
2022-11-28T13:45:47.410Z,7.36
2022-11-28T13:49:13.860Z,7.39
2022-11-28T13:52:18.664Z,7.49
2022-11-28T13:55:40.718Z,7.47
2022-11-28T13:59:02.767Z,7.39
2022-11-28T14:02:21.702Z,7.40
2022-11-28T14:05:34.009Z,7.37
2022-11-28T14:08:41.247Z,7.45
2022-11-28T14:11:49.922Z,7.39
2022-11-28T14:15:18.740Z,7.27
2022-11-28T14:18:57.736Z,7.21
2022-11-28T14:22:05.684Z,7.19
2022-11-28T14:25:26.474Z,7.33
2022-11-28T14:28:36.748Z,7.22
2022-11-28T14:32:06.672Z,7.22
2022-11-28T14:35:39.536Z,7.02
2022-11-28T14:38:44.114Z,7.10
2022-11-28T14:42:06.712Z,7.08
2022-11-28T14:45:33.488Z,7.03
2022-11-28T14:48:42.051Z,6.99
2022-11-28T14:51:49.708Z,7.01
2022-11-28T14:54:54.832Z,6.96
2022-11-28T14:58:01.643Z,6.94
2022-11-28T15:01:13.278Z,6.93
2022-11-28T15:04:45.892Z,6.91
2022-11-28T15:08:07.744Z,6.98
2022-11-28T15:11:30.446Z,7.02
2022-11-28T15:14:35.110Z,6.95
2022-11-28T15:17:41.501Z,6.92
2022-11-28T15:20:53.894Z,6.83
2022-11-28T15:23:57.971Z,6.96
2022-11-28T15:27:08.141Z,7.01
2022-11-28T15:30:20.710Z,7.02
2022-11-28T15:33:26.429Z,6.99
2022-11-28T15:36:30.655Z,6.89
2022-11-28T15:39:40.268Z,6.85
2022-11-28T15:42:48.702Z,6.91
2022-11-28T15:45:58.492Z,6.95
2022-11-28T15:49:03.938Z,6.94
2022-11-28T15:52:17.454Z,6.85
2022-11-28T15:55:22.107Z,6.86
2022-11-28T15:58:29.194Z,6.93
2022-11-28T16:01:33.652Z,6.96
2022-11-28T16:04:38.277Z,6.92
2022-11-28T16:07:43.920Z,6.98
2022-11-28T16:10:48.082Z,6.91
2022-11-28T16:13:55.819Z,6.76
2022-11-28T16:17:02.563Z,6.90
2022-11-28T16:20:06.955Z,6.83
2022-11-28T16:23:19.433Z,6.94
2022-11-28T16:26:35.424Z,6.84
2022-11-28T16:29:45.439Z,6.87
2022-11-28T16:32:50.998Z,6.93
2022-11-28T16:36:08.865Z,6.95
2022-11-28T16:39:17.232Z,6.89
2022-11-28T16:42:21.350Z,6.85
2022-11-28T16:45:27.266Z,6.93
2022-11-28T16:48:35.356Z,6.90
2022-11-28T16:51:41.203Z,6.90
2022-11-28T16:54:45.224Z,6.89
2022-11-28T16:57:57.967Z,6.88
2022-11-28T17:01:02.651Z,6.85
2022-11-28T17:04:18.239Z,6.92
2022-11-28T17:07:23.986Z,6.83
2022-11-28T17:10:28.392Z,6.94
2022-11-28T17:13:32.413Z,6.90
2022-11-28T17:16:37.609Z,6.81
2022-11-28T17:19:42.442Z,6.72
2022-11-28T17:22:47.816Z,6.74
2022-11-28T17:25:52.367Z,6.81
2022-11-28T17:28:58.734Z,6.74
2022-11-28T17:32:03.506Z,6.76
2022-11-28T17:35:24.691Z,6.83
2022-11-28T17:38:31.920Z,6.83
2022-11-28T17:41:36.351Z,6.75
2022-11-28T17:44:40.846Z,6.61
2022-11-28T17:47:45.732Z,6.68
2022-11-28T17:50:50.992Z,6.64
2022-11-28T17:53:54.967Z,6.65
2022-11-28T17:56:58.996Z,6.65
2022-11-28T18:00:07.933Z,6.66
2022-11-28T18:03:13.615Z,6.61
2022-11-28T18:06:18.138Z,6.68
2022-11-28T18:09:22.466Z,6.80
2022-11-28T18:12:26.895Z,6.79
2022-11-28T18:15:32.618Z,6.67
2022-11-28T18:18:37.514Z,6.53
2022-11-28T18:21:41.541Z,6.51
2022-11-28T18:24:45.801Z,6.66
2022-11-28T18:27:50.341Z,6.56
2022-11-28T18:30:54.549Z,6.51
2022-11-28T18:34:04.000Z,6.51
2022-11-28T18:37:08.420Z,6.61
2022-11-28T18:40:12.486Z,6.57
2022-11-28T18:43:16.383Z,6.44
2022-11-28T18:46:20.853Z,6.49
2022-11-28T18:49:25.003Z,6.62
2022-11-28T18:52:29.263Z,6.52
2022-11-28T18:55:33.402Z,6.51
2022-11-28T18:58:40.371Z,6.51
2022-11-28T19:01:44.684Z,6.53
2022-11-28T19:04:48.914Z,6.41
2022-11-28T19:07:53.392Z,6.47
2022-11-28T19:11:00.955Z,6.40
2022-11-28T19:14:06.789Z,6.37
2022-11-28T19:17:12.145Z,6.37
2022-11-28T19:20:16.758Z,6.30
2022-11-28T19:23:20.623Z,6.42
2022-11-28T19:26:26.638Z,6.44
2022-11-28T19:29:31.182Z,6.45
2022-11-28T19:32:36.265Z,6.44
2022-11-28T19:35:40.332Z,6.36
2022-11-28T19:38:44.615Z,6.41
2022-11-28T19:41:50.081Z,6.39
2022-11-28T19:44:54.515Z,6.36
2022-11-28T19:47:58.859Z,6.38
2022-11-28T19:51:04.002Z,6.31
2022-11-28T19:54:08.510Z,6.30
2022-11-28T19:57:12.792Z,6.34
2022-11-28T20:00:18.149Z,6.38
2022-11-28T20:03:22.007Z,6.32
2022-11-28T20:06:28.966Z,6.26
2022-11-28T20:09:32.826Z,6.35
2022-11-28T20:12:37.066Z,6.33
2022-11-28T20:15:41.443Z,6.35
2022-11-28T20:18:45.919Z,6.32
2022-11-28T20:21:50.090Z,6.28
2022-11-28T20:24:54.246Z,6.26
2022-11-28T20:27:58.442Z,6.37
2022-11-28T20:31:03.031Z,6.31
2022-11-28T20:34:07.114Z,6.24
2022-11-28T20:37:11.681Z,6.30
2022-11-28T20:40:15.908Z,6.21
2022-11-28T20:43:21.205Z,6.26
2022-11-28T20:46:28.313Z,6.34
2022-11-28T20:49:32.427Z,6.24
2022-11-28T20:52:36.662Z,6.21
2022-11-28T20:55:40.860Z,6.11
2022-11-28T20:58:45.440Z,6.27
2022-11-28T21:01:49.959Z,6.13
2022-11-28T21:04:53.883Z,6.24
2022-11-28T21:07:57.966Z,6.25
2022-11-28T21:11:07.642Z,6.30
2022-11-28T21:14:11.886Z,6.16
2022-11-28T21:17:15.646Z,6.20
2022-11-28T21:20:19.650Z,6.21
2022-11-28T21:23:23.622Z,6.18
2022-11-28T21:26:30.591Z,6.22
2022-11-28T21:29:35.064Z,6.18
2022-11-28T21:32:39.244Z,6.26
2022-11-28T21:35:43.311Z,6.26
2022-11-28T21:38:51.871Z,6.20
2022-11-28T21:41:55.727Z,6.31
2022-11-28T21:45:00.023Z,6.23
2022-11-28T21:48:04.280Z,6.30
2022-11-28T21:51:15.418Z,6.25
2022-11-28T21:54:19.241Z,6.20
2022-11-28T21:57:23.181Z,6.20
2022-11-28T22:00:52.050Z,6.20
2022-11-28T22:03:50.603Z,6.12
2022-11-28T22:06:54.688Z,6.22
2022-11-28T22:09:58.744Z,6.25
2022-11-28T22:13:03.015Z,6.22
2022-11-28T22:16:16.185Z,6.16
2022-11-28T22:19:20.794Z,6.12
2022-11-28T22:22:27.423Z,6.13
2022-11-28T22:25:31.675Z,6.23
2022-11-28T22:28:37.112Z,6.20
2022-11-28T22:31:41.042Z,6.10
2022-11-28T22:34:46.210Z,6.09
2022-11-28T22:37:53.234Z,6.12
2022-11-28T22:40:57.941Z,6.07
2022-11-28T22:44:03.854Z,6.22
2022-11-28T22:47:08.139Z,6.18
2022-11-28T22:50:11.956Z,6.11
2022-11-28T22:53:16.587Z,6.13
2022-11-28T22:56:20.799Z,6.05
2022-11-28T22:59:25.235Z,6.05
2022-11-28T23:02:29.469Z,6.01
2022-11-28T23:05:33.773Z,6.05
2022-11-28T23:08:38.494Z,6.01
2022-11-28T23:11:42.946Z,5.98
2022-11-28T23:14:48.618Z,5.96
2022-11-28T23:17:52.526Z,5.94
2022-11-28T23:20:56.329Z,6.00
2022-11-28T23:24:00.993Z,6.08
2022-11-28T23:27:05.171Z,6.12
2022-11-28T23:30:09.406Z,6.06
2022-11-28T23:33:13.266Z,6.07
2022-11-28T23:36:21.731Z,6.03
2022-11-28T23:39:25.821Z,6.05
2022-11-28T23:42:30.207Z,6.04
2022-11-28T23:45:34.323Z,6.05
2022-11-28T23:48:39.161Z,6.07
2022-11-28T23:51:43.179Z,6.11
2022-11-28T23:54:47.227Z,6.10
2022-11-28T23:57:51.265Z,6.12
